Time;durP1;ratioP1;P1;durP2;ratioP2;P2;SDS_P1;SDS_P2;PMS_P1;PMS_P2;Temp;Humidity;BMP_temperature;BMP_pressure;BME280_temperature;BME280_humidity;BME280_pressure;Samples;Min_cycle;Max_cycle;Signal;HPM_P1;HPM_P2
2021/01/29 00:02:26;;;;;;;;;;;19.80;99.90;;;;;;4994159;28;19921;-79
2021/01/29 00:04:52;;;;;;;;;;;19.90;99.90;;;;;;4984927;28;19910;-79
2021/01/29 00:07:19;;;;;;;;;;;19.80;99.90;;;;;;4985507;28;19937;-79
2021/01/29 00:09:45;;;;;;;;;;;19.80;99.90;;;;;;4968925;28;19917;-79
2021/01/29 00:12:12;;;;;;;;;;;19.70;99.90;;;;;;4984482;28;19921;-80
2021/01/29 00:14:39;;;;;;;;;;;19.70;99.90;;;;;;4987033;28;20679;-79
2021/01/29 00:17:06;;;;;;;;;;;19.70;99.90;;;;;;4984686;28;19914;-79
2021/01/29 00:19:35;;;;;;;;;;;19.80;99.90;;;;;;4988030;28;19964;-78
2021/01/29 00:22:02;;;;;;;;;;;19.80;99.90;;;;;;4989663;28;20343;-79
2021/01/29 00:24:29;;;;;;;;;;;19.80;99.90;;;;;;4973827;28;19918;-78
2021/01/29 00:26:55;;;;;;;;;;;19.70;99.90;;;;;;4994543;28;20012;-79
2021/01/29 00:29:22;;;;;;;;;;;19.80;99.90;;;;;;4992407;28;19984;-78
2021/01/29 00:31:49;;;;;;;;;;;19.80;99.90;;;;;;4990937;28;19921;-79
2021/01/29 00:34:16;;;;;;;;;;;19.80;99.90;;;;;;4982496;28;19924;-80
2021/01/29 00:36:43;;;;;;;;;;;19.70;99.90;;;;;;4994827;28;19944;-79
2021/01/29 00:39:09;;;;;;;;;;;19.70;99.90;;;;;;4993353;28;19994;-79
2021/01/29 00:41:36;;;;;;;;;;;19.60;99.90;;;;;;4993078;28;19914;-78
2021/01/29 00:44:03;;;;;;;;;;;19.60;99.90;;;;;;4993925;28;19945;-79
2021/01/29 00:46:30;;;;;;;;;;;19.60;99.90;;;;;;4994273;28;19909;-79
2021/01/29 00:48:57;;;;;;;;;;;19.70;99.90;;;;;;4992713;28;19918;-79
2021/01/29 00:51:23;;;;;;;;;;;19.70;99.90;;;;;;4993761;28;19949;-80
2021/01/29 00:53:50;;;;;;;;;;;19.70;99.90;;;;;;4992935;28;19922;-79
2021/01/29 00:56:17;;;;;;;;;;;19.80;99.90;;;;;;4976970;28;20000;-79
2021/01/29 00:58:44;;;;;;;;;;;19.80;99.90;;;;;;4991581;28;20479;-80
2021/01/29 01:01:10;;;;;;;;;;;19.80;99.90;;;;;;4993676;28;19945;-79
2021/01/29 01:03:37;;;;;;;;;;;19.80;99.90;;;;;;4993694;28;19972;-80
2021/01/29 01:06:04;;;;;;;;;;;19.80;99.90;;;;;;4993700;28;19918;-79
2021/01/29 01:08:32;;;;;;;;;;;19.70;99.90;;;;;;4993176;28;19957;-81
2021/01/29 01:10:59;;;;;;;;;;;19.70;99.90;;;;;;4993165;28;20432;-82
2021/01/29 01:13:30;;;;;;;;;;;19.80;99.90;;;;;;4994077;28;20000;-81
2021/01/29 01:15:56;;;;;;;;;;;19.80;99.90;;;;;;4994311;28;19914;-83
2021/01/29 01:18:26;;;;;;;;;;;19.70;99.90;;;;;;4993146;28;19961;-82
2021/01/29 01:20:53;;;;;;;;;;;19.80;99.90;;;;;;4980865;28;20032;-80
2021/01/29 01:23:19;;;;;;;;;;;19.90;99.90;;;;;;4980269;28;19918;-80
2021/01/29 01:25:46;;;;;;;;;;;19.90;99.90;;;;;;4983486;28;19914;-82
2021/01/29 01:28:12;;;;;;;;;;;19.90;99.90;;;;;;4982976;28;19910;-81
2021/01/29 01:30:40;;;;;;;;;;;19.90;99.90;;;;;;4984300;28;19910;-79
2021/01/29 01:33:07;;;;;;;;;;;19.90;99.90;;;;;;4983731;28;19921;-80
2021/01/29 01:35:34;;;;;;;;;;;19.90;99.90;;;;;;4968436;28;19924;-80
2021/01/29 01:38:01;;;;;;;;;;;20.00;99.90;;;;;;4983759;28;19933;-81
2021/01/29 01:40:30;;;;;;;;;;;20.10;99.90;;;;;;4986412;28;20696;-80
2021/01/29 01:42:56;;;;;;;;;;;20.10;99.90;;;;;;4985059;28;19924;-82
2021/01/29 01:45:29;;;;;;;;;;;20.10;99.90;;;;;;4972197;28;20387;-81
2021/01/29 01:48:01;;;;;;;;;;;20.10;99.90;;;;;;4992487;28;19914;-83
2021/01/29 01:50:33;;;;;;;;;;;20.10;99.90;;;;;;4992917;28;19917;-81
2021/01/29 01:53:02;;;;;;;;;;;20.10;99.90;;;;;;4993143;28;19925;-82
2021/01/29 01:55:35;;;;;;;;;;;20.10;99.90;;;;;;4992967;28;20029;-80
2021/01/29 01:58:02;;;;;;;;;;;20.10;99.90;;;;;;4991134;28;19920;-84
2021/01/29 02:00:30;;;;;;;;;;;20.10;99.90;;;;;;4990352;28;19922;-79
2021/01/29 02:03:02;;;;;;;;;;;20.10;99.90;;;;;;4970642;28;19957;-81
2021/01/29 02:05:39;;;;;;;;;;;20.10;99.90;;;;;;4991329;28;19976;-79
2021/01/29 02:08:11;;;;;;;;;;;20.10;99.90;;;;;;4992431;28;19913;-82
2021/01/29 02:10:38;;;;;;;;;;;20.00;99.90;;;;;;4990932;28;19917;-80
2021/01/29 02:13:41;;;;;;;;;;;;;;;;;;;;;
2021/01/29 02:16:35;;;;;;;;;;;20.00;99.90;;;;;;4899454;29;20031;-80
2021/01/29 02:19:07;;;;;;;;;;;20.00;99.90;;;;;;4897644;29;20014;-80
2021/01/29 02:21:41;;;;;;;;;;;20.00;99.90;;;;;;4987020;28;19996;-81
2021/01/29 02:24:08;;;;;;;;;;;19.90;99.90;;;;;;4987038;28;20339;-81
2021/01/29 02:26:54;;;;;;;;;;;20.00;99.90;;;;;;4986590;28;19968;-79
2021/01/29 02:29:32;;;;;;;;;;;20.10;99.90;;;;;;4978424;28;20392;-80
2021/01/29 02:32:17;;;;;;;;;;;20.10;99.90;;;;;;4996251;28;19917;-80
2021/01/29 02:35:02;;;;;;;;;;;20.10;99.90;;;;;;4995962;28;19921;-83
2021/01/29 02:37:34;;;;;;;;;;;20.00;99.90;;;;;;4996711;28;19926;-82
2021/01/29 02:40:11;;;;;;;;;;;20.10;99.90;;;;;;4996376;28;19917;-81
2021/01/29 02:42:57;;;;;;;;;;;20.10;99.90;;;;;;4995577;28;20296;-83
2021/01/29 02:45:31;;;;;;;;;;;20.10;99.90;;;;;;4995154;28;20014;-83
2021/01/29 02:48:04;;;;;;;;;;;20.10;99.90;;;;;;4995254;28;19954;-81
2021/01/29 02:50:51;;;;;;;;;;;20.20;99.90;;;;;;4990827;28;20352;-80
2021/01/29 02:53:36;;;;;;;;;;;20.20;99.90;;;;;;4978088;28;20364;-80
2021/01/29 02:56:06;;;;;;;;;;;20.20;99.90;;;;;;4969814;28;20384;-82
2021/01/29 02:58:38;;;;;;;;;;;20.30;99.90;;;;;;4995265;28;19922;-81
2021/01/29 03:01:11;;;;;;;;;;;20.20;99.90;;;;;;4994879;28;19969;-79
2021/01/29 03:03:51;;;;;;;;;;;20.10;99.90;;;;;;4994784;28;19914;-80
2021/01/29 03:06:30;;;;;;;;;;;20.20;99.90;;;;;;4977065;28;19921;-81
2021/01/29 03:09:00;;;;;;;;;;;20.10;99.90;;;;;;4994873;28;19920;-82
2021/01/29 03:11:58;;;;;;;;;;;20.10;99.90;;;;;;4994406;28;19937;-83
2021/01/29 03:14:31;;;;;;;;;;;20.10;99.90;;;;;;4971122;28;19917;-81
2021/01/29 03:17:03;;;;;;;;;;;20.10;99.90;;;;;;4995487;28;19914;-82
2021/01/29 03:19:33;;;;;;;;;;;20.10;99.90;;;;;;4994938;28;20277;-81
2021/01/29 03:22:02;;;;;;;;;;;20.10;99.90;;;;;;4995567;28;19910;-82
2021/01/29 03:24:32;;;;;;;;;;;20.10;99.90;;;;;;4995147;28;19957;-83
2021/01/29 03:27:02;;;;;;;;;;;20.00;99.90;;;;;;4995796;28;20487;-81
2021/01/29 03:29:40;;;;;;;;;;;20.00;99.90;;;;;;4995915;28;20404;-83
2021/01/29 03:32:08;;;;;;;;;;;20.10;99.90;;;;;;4994087;28;19958;-81
2021/01/29 03:34:57;;;;;;;;;;;20.10;99.90;;;;;;4994667;28;20386;-83
2021/01/29 03:37:30;;;;;;;;;;;20.10;99.90;;;;;;4986648;28;19913;-82
2021/01/29 03:39:57;;;;;;;;;;;20.10;99.90;;;;;;4996401;28;20296;-82
2021/01/29 03:42:26;;;;;;;;;;;20.00;99.90;;;;;;4994790;28;19922;-80
2021/01/29 03:44:56;;;;;;;;;;;20.00;99.90;;;;;;4995567;28;19910;-80
2021/01/29 03:47:38;;;;;;;;;;;20.00;99.90;;;;;;4995251;28;19910;-81
2021/01/29 03:50:10;;;;;;;;;;;19.90;99.90;;;;;;4994495;28;19913;-80
2021/01/29 03:52:40;;;;;;;;;;;20.00;99.90;;;;;;4976722;28;20391;-81
2021/01/29 03:55:19;;;;;;;;;;;20.10;99.90;;;;;;4994473;28;19918;-82
2021/01/29 03:57:54;;;;;;;;;;;20.00;99.90;;;;;;4994302;28;20464;-81
2021/01/29 04:00:33;;;;;;;;;;;20.00;99.90;;;;;;4977492;28;20546;-81
2021/01/29 04:03:03;;;;;;;;;;;19.90;99.90;;;;;;4994972;28;19940;-82
2021/01/29 04:05:37;;;;;;;;;;;20.00;99.90;;;;;;4995736;28;19917;-82
2021/01/29 04:08:11;;;;;;;;;;;20.00;99.90;;;;;;4994435;28;19938;-83
2021/01/29 04:10:39;;;;;;;;;;;20.00;99.90;;;;;;4989661;28;19914;-83
2021/01/29 04:13:09;;;;;;;;;;;20.00;99.90;;;;;;4993668;28;19921;-84
2021/01/29 04:15:41;;;;;;;;;;;20.10;99.90;;;;;;4993918;28;19914;-82
2021/01/29 04:18:08;;;;;;;;;;;20.00;99.90;;;;;;4994113;28;19925;-84
2021/01/29 04:20:57;;;;;;;;;;;20.00;99.90;;;;;;4994650;28;20385;-81
2021/01/29 04:23:33;;;;;;;;;;;19.90;99.90;;;;;;4981767;28;19925;-82
2021/01/29 04:26:04;;;;;;;;;;;19.90;99.90;;;;;;4990748;28;19921;-83
2021/01/29 04:28:33;;;;;;;;;;;20.00;99.90;;;;;;4978720;28;20328;-81
2021/01/29 04:31:02;;;;;;;;;;;20.00;99.90;;;;;;4994704;28;19918;-81
2021/01/29 04:33:34;;;;;;;;;;;20.00;99.90;;;;;;4995079;28;19920;-82
2021/01/29 04:36:02;;;;;;;;;;;20.00;99.90;;;;;;4994452;28;20384;-81
2021/01/29 04:38:35;;;;;;;;;;;20.00;99.90;;;;;;4989310;28;20385;-83
2021/01/29 04:41:07;;;;;;;;;;;20.00;99.90;;;;;;4973339;28;20822;-81
2021/01/29 04:43:51;;;;;;;;;;;20.00;99.90;;;;;;4956918;28;19910;-80
2021/01/29 04:46:25;;;;;;;;;;;20.00;99.90;;;;;;4975073;28;19910;-81
2021/01/29 04:49:18;;;;;;;;;;;20.00;99.90;;;;;;4975015;28;20404;-82
2021/01/29 04:51:44;;;;;;;;;;;20.10;99.90;;;;;;4974523;28;19972;-81
2021/01/29 04:54:41;;;;;;;;;;;20.10;99.90;;;;;;4990250;28;20005;-83
2021/01/29 04:57:26;;;;;;;;;;;20.10;99.90;;;;;;4984360;28;19909;-82
2021/01/29 05:00:11;;;;;;;;;;;20.00;99.90;;;;;;4979528;28;20078;-82
2021/01/29 05:02:50;;;;;;;;;;;20.00;99.90;;;;;;4974768;28;19910;-80
2021/01/29 05:05:30;;;;;;;;;;;20.10;99.90;;;;;;4974610;28;19910;-82
2021/01/29 05:08:05;;;;;;;;;;;20.00;99.90;;;;;;4974626;28;19910;-83
2021/01/29 05:10:51;;;;;;;;;;;20.00;99.90;;;;;;4972896;28;20376;-83
2021/01/29 05:13:27;;;;;;;;;;;20.10;99.90;;;;;;4973601;28;19917;-82
2021/01/29 05:16:04;;;;;;;;;;;20.10;99.90;;;;;;4974747;28;20324;-82
2021/01/29 05:18:36;;;;;;;;;;;20.00;99.90;;;;;;4974552;28;19925;-80
2021/01/29 05:21:12;;;;;;;;;;;20.00;99.90;;;;;;4975225;28;20013;-82
2021/01/29 05:23:42;;;;;;;;;;;19.90;99.90;;;;;;4993696;28;20278;-81
2021/01/29 05:26:26;;;;;;;;;;;20.00;99.90;;;;;;4975665;28;20025;-82
2021/01/29 05:29:05;;;;;;;;;;;20.00;99.90;;;;;;4993518;28;19957;-83
2021/01/29 05:31:47;;;;;;;;;;;20.00;99.90;;;;;;4993294;28;19928;-80
2021/01/29 05:34:23;;;;;;;;;;;20.00;99.90;;;;;;4992023;28;19964;-80
2021/01/29 05:37:28;;;;;;;;;;;20.00;99.90;;;;;;4993949;28;19913;-81
2021/01/29 05:40:16;;;;;;;;;;;19.90;99.90;;;;;;4965598;28;19922;-80
2021/01/29 05:42:45;;;;;;;;;;;20.00;99.90;;;;;;4973135;28;19929;-81
2021/01/29 05:45:37;;;;;;;;;;;20.00;99.90;;;;;;4982569;28;19913;-82
2021/01/29 05:48:31;;;;;;;;;;;20.00;99.90;;;;;;4982354;28;20455;-81
2021/01/29 05:51:31;;;;;;;;;;;20.00;99.90;;;;;;4983914;28;20400;-81
2021/01/29 05:54:04;;;;;;;;;;;19.90;99.90;;;;;;4900806;29;19971;-81
2021/01/29 05:56:33;;;;;;;;;;;20.00;99.90;;;;;;4926106;28;19956;-80
2021/01/29 05:59:00;;;;;;;;;;;19.90;99.90;;;;;;4990691;28;20384;-82
2021/01/29 06:01:33;;;;;;;;;;;19.90;99.90;;;;;;4991746;28;19918;-81
2021/01/29 06:03:59;;;;;;;;;;;20.00;99.90;;;;;;4991892;28;19990;-81
2021/01/29 06:06:32;;;;;;;;;;;20.00;99.90;;;;;;4990615;28;19921;-82
2021/01/29 06:08:58;;;;;;;;;;;20.00;99.90;;;;;;4989908;28;19921;-80
2021/01/29 06:11:41;;;;;;;;;;;20.00;99.90;;;;;;4989523;28;19997;-81
2021/01/29 06:14:29;;;;;;;;;;;20.00;99.90;;;;;;4991023;28;19920;-81
2021/01/29 06:17:17;;;;;;;;;;;19.90;99.90;;;;;;4973053;28;19914;-79
2021/01/29 06:20:01;;;;;;;;;;;19.90;99.90;;;;;;4977406;28;20004;-81
2021/01/29 06:22:49;;;;;;;;;;;19.90;99.90;;;;;;4990069;28;19963;-82
2021/01/29 06:25:28;;;;;;;;;;;19.90;99.90;;;;;;4990682;28;19929;-80
2021/01/29 06:28:07;;;;;;;;;;;19.80;99.90;;;;;;4990781;28;20004;-80
2021/01/29 06:30:33;;;;;;;;;;;19.80;99.90;;;;;;4990904;28;19917;-80
2021/01/29 06:33:18;;;;;;;;;;;19.90;99.90;;;;;;4990195;28;19918;-81
2021/01/29 06:35:54;;;;;;;;;;;19.90;99.90;;;;;;4984675;28;19918;-83
2021/01/29 06:38:27;;;;;;;;;;;19.90;99.90;;;;;;4989664;28;20394;-81
2021/01/29 06:41:12;;;;;;;;;;;19.80;99.90;;;;;;4971287;28;20611;-83
2021/01/29 06:43:48;;;;;;;;;;;19.80;99.90;;;;;;4987018;28;20030;-82
2021/01/29 06:46:33;;;;;;;;;;;19.70;99.90;;;;;;4990503;28;19918;-83
2021/01/29 06:49:02;;;;;;;;;;;19.80;99.90;;;;;;4990706;28;19914;-82
2021/01/29 06:51:48;;;;;;;;;;;19.80;99.90;;;;;;4987922;28;19964;-82
2021/01/29 06:54:28;;;;;;;;;;;19.90;99.90;;;;;;4990392;28;19926;-83
2021/01/29 06:57:23;;;;;;;;;;;19.90;99.90;;;;;;4990169;28;19929;-83
2021/01/29 06:59:53;;;;;;;;;;;19.80;99.90;;;;;;4984302;28;19922;-83
2021/01/29 07:02:20;;;;;;;;;;;19.90;99.90;;;;;;4990359;28;19954;-84
2021/01/29 07:04:55;;;;;;;;;;;19.80;99.90;;;;;;4991023;28;19961;-82
2021/01/29 07:07:34;;;;;;;;;;;19.90;99.90;;;;;;4994187;28;19910;-83
2021/01/29 07:10:01;;;;;;;;;;;19.90;99.90;;;;;;4990636;28;20021;-83
2021/01/29 07:12:32;;;;;;;;;;;19.90;99.90;;;;;;4992276;28;19924;-79
2021/01/29 07:15:09;;;;;;;;;;;19.90;99.90;;;;;;4994016;28;20305;-80
2021/01/29 07:17:54;;;;;;;;;;;19.90;99.90;;;;;;4990899;28;19961;-79
2021/01/29 07:20:39;;;;;;;;;;;19.90;99.90;;;;;;4993029;28;19917;-80
2021/01/29 07:36:03;;;;;;;;;;;19.90;99.90;;;;;;5089815;28;19927;-79
2021/01/29 07:38:48;;;;;;;;;;;20.00;99.90;;;;;;5089965;28;19924;-78
2021/01/29 07:41:15;;;;;;;;;;;19.90;99.90;;;;;;5070673;28;19915;-79
2021/01/29 07:43:53;;;;;;;;;;;19.90;99.90;;;;;;5074379;28;19917;-79
2021/01/29 07:46:30;;;;;;;;;;;19.90;99.90;;;;;;5071719;28;19920;-80
2021/01/29 07:48:57;;;;;;;;;;;19.90;99.90;;;;;;5074058;28;19918;-80
2021/01/29 07:51:39;;;;;;;;;;;19.90;99.90;;;;;;5087239;28;19923;-80
2021/01/29 07:54:11;;;;;;;;;;;19.90;99.90;;;;;;5086235;28;19946;-81
2021/01/29 07:56:56;;;;;;;;;;;19.90;99.90;;;;;;5061427;28;20003;-81
2021/01/29 07:59:48;;;;;;;;;;;19.90;99.90;;;;;;5069472;28;19993;-81
2021/01/29 08:02:14;;;;;;;;;;;19.90;99.90;;;;;;5072707;28;20055;-81
2021/01/29 08:04:59;;;;;;;;;;;19.90;99.90;;;;;;5076937;28;19962;-81
2021/01/29 08:07:30;;;;;;;;;;;20.00;99.90;;;;;;5072426;28;19920;-80
2021/01/29 08:10:02;;;;;;;;;;;19.90;99.90;;;;;;5069396;28;20303;-80
2021/01/29 08:12:34;;;;;;;;;;;19.80;99.90;;;;;;5069856;28;19908;-80
2021/01/29 08:15:04;;;;;;;;;;;19.80;99.90;;;;;;5071215;28;19912;-79
2021/01/29 08:17:35;;;;;;;;;;;19.90;99.90;;;;;;5088310;28;19912;-81
2021/01/29 08:20:21;;;;;;;;;;;19.90;99.90;;;;;;5073128;28;20367;-78
2021/01/29 08:23:06;;;;;;;;;;;19.90;99.90;;;;;;5062728;28;19955;-80
2021/01/29 08:25:33;;;;;;;;;;;19.90;99.90;;;;;;5067749;28;19913;-80
2021/01/29 08:28:12;;;;;;;;;;;19.90;99.90;;;;;;5066160;28;20363;-80
2021/01/29 08:30:57;;;;;;;;;;;19.90;99.90;;;;;;5072890;28;19912;-79
2021/01/29 08:33:29;;;;;;;;;;;20.00;99.90;;;;;;5067574;28;19920;-79
2021/01/29 08:36:14;;;;;;;;;;;20.00;99.90;;;;;;5053917;28;19912;-79
2021/01/29 08:38:58;;;;;;;;;;;20.00;99.90;;;;;;5056312;28;19916;-79
2021/01/29 08:41:31;;;;;;;;;;;20.00;99.90;;;;;;5053990;28;19913;-81
2021/01/29 08:44:09;;;;;;;;;;;20.00;99.90;;;;;;5054697;28;19925;-80
2021/01/29 08:46:53;;;;;;;;;;;20.00;99.90;;;;;;5054353;28;19909;-79
2021/01/29 08:49:20;;;;;;;;;;;20.10;99.90;;;;;;5054274;28;20286;-80
2021/01/29 08:51:58;;;;;;;;;;;20.10;99.90;;;;;;5060083;28;20362;-80
2021/01/29 08:54:31;;;;;;;;;;;20.00;99.90;;;;;;5055434;28;19913;-81
2021/01/29 08:57:13;;;;;;;;;;;20.10;99.90;;;;;;5052677;28;19940;-81
2021/01/29 08:59:40;;;;;;;;;;;20.10;99.90;;;;;;5052778;28;20007;-81
2021/01/29 09:02:25;;;;;;;;;;;20.10;99.90;;;;;;5052961;28;19917;-79
2021/01/29 09:05:07;;;;;;;;;;;20.10;99.90;;;;;;5053701;28;20430;-82
2021/01/29 09:07:35;;;;;;;;;;;20.10;99.90;;;;;;5053627;28;20436;-80
2021/01/29 09:10:10;;;;;;;;;;;20.20;99.90;;;;;;5057408;28;19967;-81
2021/01/29 09:12:38;;;;;;;;;;;20.20;99.90;;;;;;5054995;28;19919;-80
2021/01/29 09:15:04;;;;;;;;;;;20.20;99.90;;;;;;5055225;28;19909;-81
2021/01/29 09:18:06;;;;;;;;;;;20.20;99.90;;;;;;5055267;28;19954;-81
2021/01/29 09:20:42;;;;;;;;;;;20.20;99.90;;;;;;4974712;28;19910;-84
2021/01/29 09:23:21;;;;;;;;;;;20.20;99.90;;;;;;5030490;28;19992;-82
2021/01/29 09:25:51;;;;;;;;;;;20.10;99.90;;;;;;5046732;28;19971;-79
2021/01/29 09:28:22;;;;;;;;;;;20.20;99.90;;;;;;5063533;28;19921;-81
2021/01/29 09:30:56;;;;;;;;;;;20.20;99.90;;;;;;5049787;28;19917;-80
2021/01/29 09:33:29;;;;;;;;;;;20.20;99.90;;;;;;5051362;28;19939;-81
2021/01/29 09:36:02;;;;;;;;;;;20.20;99.90;;;;;;5049276;28;20377;-82
2021/01/29 09:38:44;;;;;;;;;;;20.20;99.90;;;;;;5051774;28;20281;-79
2021/01/29 09:41:20;;;;;;;;;;;20.20;99.90;;;;;;5049440;28;19939;-83
2021/01/29 09:43:46;;;;;;;;;;;20.20;99.90;;;;;;5050887;28;19920;-81
2021/01/29 09:46:18;;;;;;;;;;;20.20;99.90;;;;;;5063134;28;19998;-82
2021/01/29 09:48:48;;;;;;;;;;;20.20;99.90;;;;;;5044508;28;19913;-82
2021/01/29 09:51:14;;;;;;;;;;;20.20;99.90;;;;;;5051737;28;19914;-82
2021/01/29 09:53:46;;;;;;;;;;;20.30;99.90;;;;;;5051510;28;19913;-82
2021/01/29 09:56:22;;;;;;;;;;;20.30;99.90;;;;;;5051792;28;19947;-82
2021/01/29 09:58:58;;;;;;;;;;;20.30;99.90;;;;;;5051182;28;19942;-82
2021/01/29 10:01:25;;;;;;;;;;;20.20;99.90;;;;;;5051175;28;19940;-83
2021/01/29 10:03:55;;;;;;;;;;;20.30;99.90;;;;;;5050738;28;19931;-82
2021/01/29 10:06:25;;;;;;;;;;;20.30;99.90;;;;;;5047520;28;19935;-83
2021/01/29 10:08:55;;;;;;;;;;;20.30;99.90;;;;;;5048898;28;19913;-82
2021/01/29 10:11:24;;;;;;;;;;;20.30;99.90;;;;;;5047965;28;19913;-81
2021/01/29 10:14:07;;;;;;;;;;;20.30;99.90;;;;;;5051055;28;19913;-81
2021/01/29 10:16:34;;;;;;;;;;;20.30;99.90;;;;;;5049200;28;19917;-79
2021/01/29 10:19:09;;;;;;;;;;;20.30;99.90;;;;;;5050666;28;19956;-81
2021/01/29 10:21:54;;;;;;;;;;;20.30;99.90;;;;;;5048903;28;19938;-85
2021/01/29 10:24:27;;;;;;;;;;;20.30;99.90;;;;;;5052076;28;19922;-85
2021/01/29 10:27:00;;;;;;;;;;;20.40;99.90;;;;;;5045577;28;19913;-83
2021/01/29 10:29:30;;;;;;;;;;;20.30;99.90;;;;;;5048860;28;19913;-83
2021/01/29 10:32:17;;;;;;;;;;;20.40;99.90;;;;;;5050740;28;20249;-85
2021/01/29 10:34:44;;;;;;;;;;;20.40;99.90;;;;;;5051540;28;19921;-85
2021/01/29 10:37:13;;;;;;;;;;;20.30;99.90;;;;;;5050784;28;19909;-84
2021/01/29 10:39:50;;;;;;;;;;;20.30;99.90;;;;;;5050313;28;19920;-86
2021/01/29 10:42:19;;;;;;;;;;;20.30;99.90;;;;;;5045704;28;20003;-82
2021/01/29 10:44:46;;;;;;;;;;;20.30;99.90;;;;;;5050277;28;20407;-82
2021/01/29 10:47:19;;;;;;;;;;;20.40;99.90;;;;;;5050485;28;20315;-81
2021/01/29 10:49:45;;;;;;;;;;;20.40;99.90;;;;;;5050343;28;19952;-82
2021/01/29 10:52:37;;;;;;;;;;;20.30;99.90;;;;;;5053035;28;20279;-82
2021/01/29 10:55:16;;;;;;;;;;;20.30;99.90;;;;;;5047017;28;20302;-83
2021/01/29 10:57:49;;;;;;;;;;;20.40;99.90;;;;;;5046591;28;19936;-84
2021/01/29 11:00:16;;;;;;;;;;;20.30;99.90;;;;;;5044279;28;19947;-82
2021/01/29 11:03:02;;;;;;;;;;;20.30;99.90;;;;;;5046467;28;19917;-81
2021/01/29 11:05:30;;;;;;;;;;;20.30;99.90;;;;;;5047029;28;19917;-82
2021/01/29 11:08:23;;;;;;;;;;;20.40;99.90;;;;;;5054455;28;19922;-83
2021/01/29 11:10:53;;;;;;;;;;;20.40;99.90;;;;;;5049496;28;19935;-83
2021/01/29 11:13:19;;;;;;;;;;;20.40;99.90;;;;;;5047069;28;20477;-82
2021/01/29 11:15:55;;;;;;;;;;;20.50;99.90;;;;;;5049520;28;20000;-81
2021/01/29 11:18:35;;;;;;;;;;;20.40;99.90;;;;;;5045852;28;20333;-82
2021/01/29 11:21:01;;;;;;;;;;;20.50;99.90;;;;;;5049005;28;19912;-83
2021/01/29 11:23:34;;;;;;;;;;;20.50;99.90;;;;;;5051594;28;19925;-81
2021/01/29 11:26:10;;;;;;;;;;;20.50;99.90;;;;;;5044938;28;19967;-84
2021/01/29 11:28:44;;;;;;;;;;;20.50;99.90;;;;;;5051171;28;19921;-83
2021/01/29 11:31:16;;;;;;;;;;;20.50;99.90;;;;;;5053684;28;19916;-82
2021/01/29 11:33:46;;;;;;;;;;;20.50;99.90;;;;;;5053141;28;19920;-81
2021/01/29 11:36:20;;;;;;;;;;;20.50;99.90;;;;;;5048902;28;19952;-83
2021/01/29 11:38:58;;;;;;;;;;;20.50;99.90;;;;;;5047837;28;19917;-82
2021/01/29 11:41:43;;;;;;;;;;;20.50;99.90;;;;;;5029271;28;19909;-82
2021/01/29 11:44:32;;;;;;;;;;;20.50;99.90;;;;;;5029867;28;19979;-82
2021/01/29 11:47:10;;;;;;;;;;;20.50;99.90;;;;;;5019489;28;19913;-82
2021/01/29 11:49:47;;;;;;;;;;;20.50;99.90;;;;;;5050246;28;19920;-82
2021/01/29 11:52:17;;;;;;;;;;;20.50;99.90;;;;;;5050230;28;19923;-81
2021/01/29 11:54:48;;;;;;;;;;;20.50;99.90;;;;;;5049791;28;19920;-81
2021/01/29 11:57:53;;;;;;;;;;;20.50;99.90;;;;;;5049860;28;20380;-82
2021/01/29 12:00:19;;;;;;;;;;;20.50;99.90;;;;;;5015224;28;19917;-83
2021/01/29 12:02:57;;;;;;;;;;;20.50;99.90;;;;;;5027140;28;19913;-83
2021/01/29 12:05:39;;;;;;;;;;;20.50;99.90;;;;;;5038081;28;20375;-80
2021/01/29 12:08:06;;;;;;;;;;;20.50;99.90;;;;;;5050582;28;19908;-80
2021/01/29 12:10:35;;;;;;;;;;;20.50;99.90;;;;;;5051819;28;20383;-81
2021/01/29 12:13:11;;;;;;;;;;;20.50;99.90;;;;;;5053169;28;19917;-79
2021/01/29 12:15:48;;;;;;;;;;;20.50;99.90;;;;;;5048974;28;19983;-81
2021/01/29 12:18:16;;;;;;;;;;;20.50;99.90;;;;;;5051184;28;19971;-80
2021/01/29 12:20:44;;;;;;;;;;;20.50;99.90;;;;;;5073356;28;19915;-81
2021/01/29 12:23:29;;;;;;;;;;;20.50;99.90;;;;;;5053997;28;19912;-81
2021/01/29 12:26:01;;;;;;;;;;;20.50;99.90;;;;;;5053224;28;20474;-80
2021/01/29 12:28:37;;;;;;;;;;;20.50;99.90;;;;;;5052020;28;19920;-79
2021/01/29 12:31:03;;;;;;;;;;;20.50;99.90;;;;;;5073080;28;19909;-80
2021/01/29 12:33:32;;;;;;;;;;;20.50;99.90;;;;;;5064671;28;19979;-81
2021/01/29 12:36:07;;;;;;;;;;;20.50;99.90;;;;;;5054067;28;20333;-80
2021/01/29 12:38:39;;;;;;;;;;;20.50;99.90;;;;;;5053570;28;19909;-79
2021/01/29 12:41:15;;;;;;;;;;;20.50;99.90;;;;;;5054064;28;20007;-80
2021/01/29 12:44:02;;;;;;;;;;;20.50;99.90;;;;;;5056823;28;19920;-81
2021/01/29 12:46:34;;;;;;;;;;;20.50;99.90;;;;;;5057891;28;20488;-81
2021/01/29 12:49:10;;;;;;;;;;;20.50;99.90;;;;;;5054198;28;19912;-81
2021/01/29 12:51:40;;;;;;;;;;;20.50;99.90;;;;;;5051675;28;19919;-80
2021/01/29 12:54:14;;;;;;;;;;;20.50;99.90;;;;;;5053671;28;19913;-80
2021/01/29 12:57:00;;;;;;;;;;;20.50;99.90;;;;;;5051818;28;20401;-79
2021/01/29 12:59:46;;;;;;;;;;;20.50;99.90;;;;;;5052358;28;19913;-79
2021/01/29 13:02:34;;;;;;;;;;;20.50;99.90;;;;;;5050756;28;19948;-80
2021/01/29 13:05:16;;;;;;;;;;;20.50;99.90;;;;;;5051264;28;19929;-80
2021/01/29 13:07:52;;;;;;;;;;;20.60;99.90;;;;;;5052372;28;20058;-80
2021/01/29 13:10:30;;;;;;;;;;;20.60;99.90;;;;;;5052877;28;19966;-80
2021/01/29 13:13:03;;;;;;;;;;;20.60;99.90;;;;;;5051390;28;19916;-81
2021/01/29 13:16:02;;;;;;;;;;;20.60;99.90;;;;;;5051209;28;19913;-81
2021/01/29 13:18:35;;;;;;;;;;;20.60;99.90;;;;;;5016550;28;19916;-80
2021/01/29 13:21:11;;;;;;;;;;;20.60;99.90;;;;;;5052163;28;20007;-82
2021/01/29 13:23:39;;;;;;;;;;;20.60;99.90;;;;;;5051885;28;20343;-79
2021/01/29 13:26:07;;;;;;;;;;;20.60;99.90;;;;;;5051407;28;19913;-80
2021/01/29 13:28:37;;;;;;;;;;;20.60;99.90;;;;;;5052165;28;19912;-81
2021/01/29 13:31:21;;;;;;;;;;;20.60;99.90;;;;;;5051472;28;19983;-80
2021/01/29 13:33:50;;;;;;;;;;;20.60;99.90;;;;;;5052093;28;19941;-78
2021/01/29 13:36:23;;;;;;;;;;;20.70;99.90;;;;;;5052310;28;19917;-80
2021/01/29 13:38:50;;;;;;;;;;;20.70;99.90;;;;;;5052644;28;19909;-80
2021/01/29 13:41:19;;;;;;;;;;;20.60;99.90;;;;;;5052379;28;19967;-80
2021/01/29 13:43:46;;;;;;;;;;;20.70;99.90;;;;;;5051955;28;19978;-81
2021/01/29 13:46:19;;;;;;;;;;;20.70;99.90;;;;;;5052358;28;20011;-80
2021/01/29 13:48:45;;;;;;;;;;;20.70;99.90;;;;;;5052300;28;20367;-81
2021/01/29 13:51:30;;;;;;;;;;;20.70;99.90;;;;;;5052728;28;19924;-81
2021/01/29 13:53:56;;;;;;;;;;;20.70;99.90;;;;;;5051403;28;19923;-80
2021/01/29 13:56:42;;;;;;;;;;;20.70;99.90;;;;;;5051319;28;19923;-81
2021/01/29 13:59:32;;;;;;;;;;;20.70;99.90;;;;;;5051692;28;19913;-81
2021/01/29 14:02:01;;;;;;;;;;;20.70;99.90;;;;;;5051749;28;20397;-80
2021/01/29 14:04:31;;;;;;;;;;;20.70;99.90;;;;;;5051762;28;19925;-80
2021/01/29 14:06:58;;;;;;;;;;;20.70;99.90;;;;;;5052687;28;20387;-82
2021/01/29 14:09:25;;;;;;;;;;;20.70;99.90;;;;;;5051666;28;19920;-80
2021/01/29 14:12:10;;;;;;;;;;;20.70;99.90;;;;;;5052310;28;19951;-81
2021/01/29 14:15:02;;;;;;;;;;;20.70;99.90;;;;;;5052035;28;19995;-80
2021/01/29 14:17:29;;;;;;;;;;;20.80;99.90;;;;;;5043214;28;20000;-80
2021/01/29 14:20:08;;;;;;;;;;;20.70;99.90;;;;;;5051513;28;19913;-81
2021/01/29 14:22:38;;;;;;;;;;;20.80;99.90;;;;;;5051452;28;19913;-80
2021/01/29 14:25:07;;;;;;;;;;;20.80;99.90;;;;;;5053630;28;19924;-79
2021/01/29 14:27:50;;;;;;;;;;;20.80;99.90;;;;;;5052992;28;19917;-80
2021/01/29 14:30:17;;;;;;;;;;;20.80;99.90;;;;;;5053342;28;19924;-80
2021/01/29 14:33:02;;;;;;;;;;;20.80;99.90;;;;;;5053115;28;19915;-80
2021/01/29 14:35:46;;;;;;;;;;;20.80;99.90;;;;;;5052861;28;20427;-80
2021/01/29 14:38:13;;;;;;;;;;;20.80;99.90;;;;;;5053447;28;20000;-82
2021/01/29 14:40:48;;;;;;;;;;;20.80;99.90;;;;;;5053399;28;19920;-81
2021/01/29 14:43:15;;;;;;;;;;;20.80;99.90;;;;;;5053728;28;20005;-81
2021/01/29 14:45:45;;;;;;;;;;;20.80;99.90;;;;;;5053580;28;20051;-80
2021/01/29 14:48:12;;;;;;;;;;;20.80;99.90;;;;;;5053048;28;19935;-81
2021/01/29 14:50:51;;;;;;;;;;;20.80;99.90;;;;;;5053258;28;19920;-82
2021/01/29 14:53:37;;;;;;;;;;;20.80;99.90;;;;;;5053121;28;20374;-80
2021/01/29 14:56:18;;;;;;;;;;;20.80;99.90;;;;;;5053080;28;19981;-82
2021/01/29 14:58:51;;;;;;;;;;;20.70;99.90;;;;;;5038822;28;19920;-80
2021/01/29 15:01:20;;;;;;;;;;;20.80;99.90;;;;;;5053269;28;19917;-80
2021/01/29 15:04:00;;;;;;;;;;;20.80;99.90;;;;;;5053340;28;19956;-80
2021/01/29 15:06:28;;;;;;;;;;;20.80;99.90;;;;;;5052520;28;19920;-80
2021/01/29 15:09:01;;;;;;;;;;;20.80;99.90;;;;;;5052432;28;20000;-81
2021/01/29 15:11:33;;;;;;;;;;;20.80;99.90;;;;;;5053223;28;19917;-81
2021/01/29 15:14:01;;;;;;;;;;;20.80;99.90;;;;;;5046543;28;20081;-81
2021/01/29 15:16:40;;;;;;;;;;;20.80;99.90;;;;;;5052556;28;19920;-81